Time;durP1;ratioP1;P1;durP2;ratioP2;P2;SDS_P1;SDS_P2;PMS_P1;PMS_P2;Temp;Humidity;BMP_temperature;BMP_pressure;BME280_temperature;BME280_humidity;BME280_pressure;Samples;Min_cycle;Max_cycle;Signal;HPM_P1;HPM_P2
2021/05/17 00:00:21;;;;;;;20.73;17.17;;;10.70;99.90;;;;;;5032791;28;20530;-82
2021/05/17 00:03:11;;;;;;;20.70;16.83;;;10.60;99.90;;;;;;5027606;28;20399;-83
2021/05/17 00:05:40;;;;;;;19.17;16.97;;;10.50;99.90;;;;;;5036445;28;20664;-84
2021/05/17 00:08:08;;;;;;;21.73;17.30;;;10.60;99.90;;;;;;5036736;28;20225;-82
2021/05/17 00:10:37;;;;;;;21.10;16.63;;;10.60;99.90;;;;;;5060569;28;20198;-82
2021/05/17 00:13:05;;;;;;;22.30;16.27;;;10.60;99.90;;;;;;5046721;28;20213;-86
2021/05/17 00:15:34;;;;;;;19.53;16.27;;;10.50;99.90;;;;;;5049442;28;20363;-84
2021/05/17 00:18:02;;;;;;;20.20;16.10;;;10.50;99.90;;;;;;5056018;28;20198;-85
2021/05/17 00:20:32;;;;;;;18.50;16.33;;;10.50;99.90;;;;;;5048003;28;20221;-83
2021/05/17 00:23:00;;;;;;;18.17;16.20;;;10.50;99.90;;;;;;5057101;28;20202;-83
2021/05/17 00:25:28;;;;;;;19.17;15.93;;;10.40;99.90;;;;;;5057374;28;20194;-83
2021/05/17 00:27:59;;;;;;;18.13;15.47;;;10.40;99.90;;;;;;5053597;28;20233;-83
2021/05/17 00:30:32;;;;;;;18.93;16.60;;;10.30;99.90;;;;;;5020621;28;20873;-83
2021/05/17 00:33:01;;;;;;;20.67;16.63;;;10.20;99.90;;;;;;5050314;28;20210;-83
2021/05/17 00:35:31;;;;;;;19.10;16.73;;;10.10;99.90;;;;;;5054455;28;20202;-82
2021/05/17 00:37:59;;;;;;;22.23;16.37;;;10.10;99.90;;;;;;5052296;28;20190;-82
2021/05/17 00:40:28;;;;;;;19.60;16.13;;;9.90;99.90;;;;;;5052723;28;20204;-83
2021/05/17 00:42:57;;;;;;;20.33;17.07;;;9.90;99.90;;;;;;5051713;28;20229;-82
2021/05/17 00:45:27;;;;;;;19.63;17.30;;;10.00;99.90;;;;;;5057125;28;20194;-84
2021/05/17 00:47:56;;;;;;;23.17;17.43;;;9.90;99.90;;;;;;5060987;28;20222;-82
2021/05/17 00:50:25;;;;;;;21.67;16.63;;;9.90;99.90;;;;;;5049926;28;20585;-83
2021/05/17 00:52:56;;;;;;;20.07;16.33;;;9.90;99.90;;;;;;5045438;28;20232;-83
2021/05/17 00:55:26;;;;;;;20.00;17.03;;;9.80;99.90;;;;;;5053596;28;20210;-83
2021/05/17 00:57:55;;;;;;;21.80;16.40;;;9.80;99.90;;;;;;5055423;28;20209;-83
2021/05/17 01:00:25;;;;;;;21.40;17.93;;;9.70;99.90;;;;;;5049105;28;20197;-83
2021/05/17 01:02:54;;;;;;;20.90;17.37;;;9.70;99.90;;;;;;5053551;28;20213;-82
2021/05/17 01:05:22;;;;;;;19.73;16.63;;;9.60;99.90;;;;;;5059416;28;20192;-84
2021/05/17 01:07:50;;;;;;;23.60;17.80;;;9.50;99.90;;;;;;5062832;28;20324;-83
2021/05/17 01:10:22;;;;;;;24.70;18.00;;;9.70;99.90;;;;;;5060113;28;20202;-83
2021/05/17 01:12:51;;;;;;;23.50;17.60;;;9.60;99.90;;;;;;5041498;28;20252;-84
2021/05/17 01:15:19;;;;;;;22.23;17.03;;;9.60;99.90;;;;;;5032455;28;20206;-83
2021/05/17 01:17:48;;;;;;;21.83;17.43;;;9.60;99.90;;;;;;5033059;28;20458;-83
2021/05/17 01:20:18;;;;;;;20.97;17.47;;;9.50;99.90;;;;;;5008305;28;20232;-83
2021/05/17 01:22:53;;;;;;;22.97;17.17;;;9.40;99.90;;;;;;5028604;28;20209;-83
2021/05/17 01:25:24;;;;;;;22.43;17.13;;;9.40;99.90;;;;;;5030106;28;20197;-83
2021/05/17 01:27:53;;;;;;;21.40;16.77;;;9.40;99.90;;;;;;5031657;28;20237;-82
2021/05/17 01:30:23;;;;;;;23.60;17.77;;;9.30;99.90;;;;;;5031274;28;20209;-82
2021/05/17 01:32:54;;;;;;;20.73;16.73;;;9.30;99.90;;;;;;5044995;28;20265;-82
2021/05/17 01:35:23;;;;;;;25.07;17.90;;;9.30;99.90;;;;;;5037660;28;20640;-83
2021/05/17 01:37:51;;;;;;;24.03;18.00;;;9.30;99.90;;;;;;5034095;28;20213;-84
2021/05/17 01:40:20;;;;;;;22.43;17.27;;;9.20;99.90;;;;;;5034813;28;20224;-83
2021/05/17 01:42:54;;;;;;;20.17;16.77;;;9.20;99.90;;;;;;5027821;28;20216;-83
2021/05/17 01:45:24;;;;;;;24.23;16.97;;;9.30;99.90;;;;;;5031775;28;20209;-82
2021/05/17 01:47:53;;;;;;;23.93;17.77;;;9.20;99.90;;;;;;5032875;28;20253;-83
2021/05/17 01:50:24;;;;;;;23.20;17.77;;;9.20;99.90;;;;;;5028071;28;20202;-82
2021/05/17 01:52:52;;;;;;;21.03;17.00;;;9.10;99.90;;;;;;5028720;28;20237;-84
2021/05/17 01:55:21;;;;;;;23.57;16.77;;;9.10;99.90;;;;;;5032936;28;20675;-84
2021/05/17 01:58:05;;;;;;;22.03;17.53;;;9.10;99.90;;;;;;5035431;28;20219;-82
2021/05/17 02:00:33;;;;;;;20.37;15.90;;;9.00;99.90;;;;;;5035121;28;20210;-84
2021/05/17 02:03:02;;;;;;;23.53;18.37;;;9.00;99.90;;;;;;5031018;28;20747;-84
2021/05/17 02:05:30;;;;;;;22.17;17.20;;;9.00;99.90;;;;;;5034238;28;20202;-83
2021/05/17 02:08:00;;;;;;;23.93;17.90;;;8.90;99.90;;;;;;5049011;28;20339;-83
2021/05/17 02:10:30;;;;;;;21.37;16.77;;;8.90;99.90;;;;;;5061009;28;20482;-85
2021/05/17 02:12:59;;;;;;;24.00;17.50;;;8.80;99.90;;;;;;5061034;28;20198;-84
2021/05/17 02:15:28;;;;;;;25.70;19.37;;;8.70;99.90;;;;;;5059490;28;20209;-85
2021/05/17 02:18:03;;;;;;;23.77;18.33;;;8.70;99.90;;;;;;5062008;28;20185;-83
2021/05/17 02:20:34;;;;;;;25.57;18.63;;;8.80;99.90;;;;;;5049361;28;20208;-84
2021/05/17 02:23:02;;;;;;;26.27;19.20;;;8.70;99.90;;;;;;5043415;28;20210;-82
2021/05/17 02:25:31;;;;;;;24.63;18.70;;;8.80;99.90;;;;;;5043128;28;20213;-86
2021/05/17 02:28:01;;;;;;;26.23;19.37;;;8.80;99.90;;;;;;5058338;28;20224;-84
2021/05/17 02:30:30;;;;;;;25.57;18.80;;;8.90;99.90;;;;;;5065309;28;20293;-84
2021/05/17 02:32:58;;;;;;;27.13;19.17;;;8.90;99.90;;;;;;5059955;28;20216;-83
2021/05/17 02:35:27;;;;;;;22.77;17.33;;;8.90;99.90;;;;;;5063272;28;20204;-83
2021/05/17 02:37:55;;;;;;;28.00;19.43;;;8.80;99.90;;;;;;5056243;28;20196;-83
2021/05/17 02:40:24;;;;;;;28.70;20.27;;;8.70;99.90;;;;;;5045054;28;20288;-83
2021/05/17 02:42:58;;;;;;;28.97;20.43;;;8.70;99.90;;;;;;5036945;28;20221;-85
2021/05/17 02:45:29;;;;;;;27.07;20.03;;;8.80;99.90;;;;;;5046318;28;20204;-83
2021/05/17 02:47:58;;;;;;;29.73;21.77;;;8.80;99.90;;;;;;5032343;28;20228;-82
2021/05/17 02:50:31;;;;;;;33.20;22.60;;;8.80;99.90;;;;;;5052294;28;20310;-84
2021/05/17 02:53:01;;;;;;;31.57;21.93;;;8.90;99.90;;;;;;5049079;28;20209;-85
2021/05/17 02:55:31;;;;;;;33.03;22.07;;;8.90;99.90;;;;;;5052833;28;20217;-82
2021/05/17 02:58:07;;;;;;;34.10;22.17;;;8.90;99.90;;;;;;5051434;28;20588;-86
2021/05/17 03:00:38;;;;;;;28.60;20.20;;;8.80;99.90;;;;;;5046317;28;20238;-84
2021/05/17 03:03:11;;;;;;;33.80;22.77;;;8.80;99.90;;;;;;5045537;28;20289;-85
2021/05/17 03:05:41;;;;;;;38.97;24.03;;;8.90;99.90;;;;;;5056559;28;20264;-83
2021/05/17 03:08:11;;;;;;;47.10;24.67;;;9.10;99.90;;;;;;5053754;28;20208;-85
2021/05/17 03:10:40;;;;;;;56.13;27.73;;;9.30;99.90;;;;;;5047910;28;20198;-85
2021/05/17 03:13:10;;;;;;;59.93;29.30;;;9.40;99.90;;;;;;5053024;28;20210;-84
2021/05/17 03:15:42;;;;;;;61.03;25.67;;;9.60;99.90;;;;;;5048494;28;20202;-84
2021/05/17 03:18:11;;;;;;;49.73;24.43;;;9.70;99.90;;;;;;5048537;28;20255;-83
2021/05/17 03:20:40;;;;;;;47.40;23.40;;;9.70;99.90;;;;;;5047893;28;20604;-84
2021/05/17 03:23:11;;;;;;;45.00;22.20;;;9.80;99.90;;;;;;5045034;28;20221;-85
2021/05/17 03:25:42;;;;;;;45.03;23.47;;;9.80;99.90;;;;;;5042229;28;20202;-85
2021/05/17 03:28:10;;;;;;;54.23;23.30;;;9.80;99.90;;;;;;5047025;28;20202;-85
2021/05/17 03:30:41;;;;;;;42.70;23.33;;;9.90;99.90;;;;;;5046574;28;20201;-85
2021/05/17 03:33:09;;;;;;;50.60;22.20;;;9.90;99.90;;;;;;5048508;28;20182;-84
2021/05/17 03:35:37;;;;;;;48.30;23.93;;;9.90;99.90;;;;;;5060820;28;21422;-86
2021/05/17 03:38:06;;;;;;;47.10;21.70;;;10.10;99.90;;;;;;5044675;28;20213;-86
2021/05/17 03:40:34;;;;;;;48.07;21.70;;;10.00;99.90;;;;;;5042905;28;20202;-82
2021/05/17 03:43:02;;;;;;;47.67;22.40;;;10.00;99.90;;;;;;5039753;28;20205;-84
2021/05/17 03:45:32;;;;;;;45.07;21.37;;;10.20;99.90;;;;;;5045602;28;20205;-84
2021/05/17 03:48:01;;;;;;;40.27;21.77;;;10.20;99.90;;;;;;5058374;28;20202;-85
2021/05/17 03:50:29;;;;;;;44.77;22.77;;;10.20;99.90;;;;;;5058470;28;20213;-84
2021/05/17 03:52:58;;;;;;;48.87;23.03;;;10.20;99.90;;;;;;5035220;28;20529;-84
2021/05/17 03:55:26;;;;;;;43.87;22.97;;;10.30;99.90;;;;;;5034274;28;20727;-83
2021/05/17 03:57:56;;;;;;;38.80;23.37;;;10.40;99.90;;;;;;5032668;28;20222;-84
2021/05/17 04:00:26;;;;;;;39.73;22.77;;;10.50;99.90;;;;;;5017582;28;20302;-85
2021/05/17 04:02:54;;;;;;;34.27;22.63;;;10.60;99.90;;;;;;5031373;28;20206;-88
2021/05/17 04:05:35;;;;;;;36.67;23.33;;;10.60;99.90;;;;;;5036910;28;20233;-84
2021/05/17 04:13:32;;;;;;;38.73;22.90;;;10.70;99.90;;;;;;5025879;28;20693;-84
2021/05/17 04:16:01;;;;;;;37.87;23.53;;;10.70;99.90;;;;;;5033509;28;20294;-85
2021/05/17 04:18:29;;;;;;;33.43;22.23;;;10.80;99.90;;;;;;5041022;28;20217;-83
2021/05/17 04:20:58;;;;;;;33.67;22.53;;;10.80;99.90;;;;;;5049222;28;20490;-84
2021/05/17 04:23:28;;;;;;;42.63;24.83;;;10.90;99.90;;;;;;5027065;28;20571;-84
2021/05/17 04:25:57;;;;;;;31.60;21.90;;;10.90;99.90;;;;;;5032007;28;20496;-85
2021/05/17 04:28:25;;;;;;;41.73;22.80;;;11.00;99.90;;;;;;5038638;28;20644;-85
2021/05/17 04:30:54;;;;;;;35.50;22.27;;;11.00;99.90;;;;;;5042286;28;21071;-85
2021/05/17 04:33:22;;;;;;;37.97;22.13;;;11.00;99.90;;;;;;5049721;28;20210;-83
2021/05/17 04:35:50;;;;;;;30.40;21.97;;;11.10;99.90;;;;;;5050517;28;20215;-85
2021/05/17 04:38:20;;;;;;;36.03;22.10;;;11.10;99.90;;;;;;5064397;28;20186;-85
2021/05/17 04:40:48;;;;;;;35.20;22.27;;;11.10;99.90;;;;;;5059244;28;20192;-85
2021/05/17 04:43:16;;;;;;;41.27;24.07;;;11.20;99.90;;;;;;5059191;28;20466;-86
2021/05/17 04:45:45;;;;;;;37.70;24.10;;;11.30;99.90;;;;;;5059268;28;20190;-85
2021/05/17 04:48:13;;;;;;;35.33;23.57;;;11.40;99.90;;;;;;5058365;28;20216;-84
2021/05/17 04:50:42;;;;;;;39.17;23.27;;;11.50;99.90;;;;;;5045490;28;20218;-84
2021/05/17 04:53:10;;;;;;;35.23;24.37;;;11.50;99.90;;;;;;5056537;28;20178;-86
2021/05/17 04:55:39;;;;;;;39.20;24.97;;;11.60;99.90;;;;;;5061781;28;20222;-85
2021/05/17 04:58:09;;;;;;;35.77;22.43;;;11.80;99.90;;;;;;5039322;28;20206;-85
2021/05/17 05:00:37;;;;;;;38.07;23.50;;;11.80;99.90;;;;;;5060216;28;20174;-85
2021/05/17 05:03:06;;;;;;;38.33;23.87;;;11.80;99.90;;;;;;5052921;28;20210;-86
2021/05/17 05:05:34;;;;;;;33.97;21.90;;;11.80;99.90;;;;;;5056529;28;20275;-84
2021/05/17 05:08:04;;;;;;;35.17;21.73;;;11.90;99.90;;;;;;5055853;28;20198;-84
2021/05/17 05:10:32;;;;;;;31.33;22.43;;;11.90;99.90;;;;;;5055686;28;20217;-86
2021/05/17 05:13:07;;;;;;;29.67;20.53;;;11.90;99.90;;;;;;5036298;28;20866;-84
2021/05/17 05:15:36;;;;;;;30.90;21.03;;;12.00;99.90;;;;;;5064558;28;20194;-83
2021/05/17 05:18:05;;;;;;;28.23;21.10;;;12.10;99.90;;;;;;5059249;28;20225;-84
2021/05/17 05:20:34;;;;;;;31.17;21.43;;;12.10;99.90;;;;;;5061395;28;20194;-87
2021/05/17 05:23:04;;;;;;;31.83;21.13;;;12.10;99.90;;;;;;5052651;28;20479;-85
2021/05/17 05:25:48;;;;;;;28.97;20.50;;;12.00;99.90;;;;;;5057045;28;20205;-86
2021/05/17 05:28:21;;;;;;;29.00;20.63;;;12.00;99.90;;;;;;5037396;28;20225;-86
2021/05/17 05:30:54;;;;;;;27.07;20.47;;;12.10;99.90;;;;;;5052188;28;20274;-84
2021/05/17 05:33:23;;;;;;;27.33;20.67;;;12.20;99.90;;;;;;5049387;28;20206;-83
2021/05/17 05:35:51;;;;;;;25.23;18.83;;;12.30;99.90;;;;;;5043652;28;21097;-83
2021/05/17 05:38:19;;;;;;;26.63;19.53;;;12.30;99.90;;;;;;5054951;28;20212;-83
2021/05/17 05:40:49;;;;;;;24.53;19.07;;;12.30;99.90;;;;;;5050059;28;20186;-84
2021/05/17 05:43:18;;;;;;;25.73;18.80;;;12.30;99.90;;;;;;5053943;28;20183;-85
2021/05/17 05:45:47;;;;;;;25.40;19.30;;;12.30;99.90;;;;;;5054955;28;20210;-84
2021/05/17 05:48:16;;;;;;;23.00;18.50;;;12.60;99.90;;;;;;5053032;28;20371;-82
2021/05/17 05:50:49;;;;;;;22.80;18.17;;;12.60;99.90;;;;;;5049663;28;20210;-83
2021/05/17 05:53:17;;;;;;;28.37;19.43;;;12.70;99.90;;;;;;5047920;28;20186;-84
2021/05/17 05:55:46;;;;;;;23.80;18.83;;;12.70;99.90;;;;;;5053979;28;20253;-85
2021/05/17 05:58:15;;;;;;;23.23;18.17;;;12.70;99.90;;;;;;5051859;28;20776;-83
2021/05/17 06:00:44;;;;;;;25.20;18.67;;;12.70;99.90;;;;;;5050222;28;20209;-83
2021/05/17 06:03:12;;;;;;;21.97;18.23;;;12.70;99.90;;;;;;5048983;28;20182;-85
2021/05/17 06:05:40;;;;;;;23.07;17.93;;;12.70;99.90;;;;;;5048733;28;20189;-85
2021/05/17 06:08:10;;;;;;;22.93;16.90;;;12.80;99.90;;;;;;5051286;28;20358;-85
2021/05/17 06:10:40;;;;;;;23.63;18.47;;;12.70;99.90;;;;;;5042070;28;20260;-85
2021/05/17 06:13:12;;;;;;;25.03;18.70;;;12.80;99.90;;;;;;5023365;28;20205;-85
2021/05/17 06:15:44;;;;;;;23.97;19.13;;;12.90;99.90;;;;;;5034129;28;20257;-85
2021/05/17 06:18:15;;;;;;;23.23;17.43;;;12.90;99.90;;;;;;5026640;28;20206;-83
2021/05/17 06:20:44;;;;;;;23.73;18.03;;;12.80;99.90;;;;;;5031938;28;20202;-85
2021/05/17 06:23:16;;;;;;;24.17;18.13;;;12.70;99.90;;;;;;5021758;28;20672;-83
2021/05/17 06:25:49;;;;;;;24.67;19.30;;;12.70;99.90;;;;;;5011938;28;20774;-86
2021/05/17 06:28:20;;;;;;;25.00;19.80;;;12.80;99.90;;;;;;4991667;28;20665;-85
2021/05/17 06:30:52;;;;;;;24.03;19.83;;;12.90;99.90;;;;;;5006995;28;20705;-85
2021/05/17 06:33:22;;;;;;;22.50;18.63;;;13.10;99.90;;;;;;5001082;28;20320;-85
2021/05/17 06:35:53;;;;;;;22.53;19.20;;;13.30;99.90;;;;;;5013937;28;20207;-86
2021/05/17 06:41:05;;;;;;;25.67;19.13;;;13.50;99.90;;;;;;5011261;28;20206;-85
2021/05/17 06:43:35;;;;;;;24.73;19.30;;;13.50;99.90;;;;;;5018389;28;20237;-86
2021/05/17 06:46:07;;;;;;;22.80;19.20;;;13.50;99.90;;;;;;5021133;28;20274;-84
2021/05/17 06:48:42;;;;;;;22.63;18.77;;;13.70;99.90;;;;;;5021540;28;20693;-86
2021/05/17 06:51:15;;;;;;;21.43;17.73;;;13.90;99.90;;;;;;5012764;28;20230;-83
2021/05/17 06:53:45;;;;;;;24.43;19.93;;;13.80;99.90;;;;;;5016747;28;20207;-83
2021/05/17 06:56:21;;;;;;;24.03;18.80;;;13.90;99.90;;;;;;5013018;28;20211;-85
2021/05/17 06:58:55;;;;;;;26.50;21.07;;;13.90;99.90;;;;;;5016490;28;20247;-83
2021/05/17 07:01:24;;;;;;;26.93;19.90;;;14.10;99.90;;;;;;5031235;28;20266;-83
2021/05/17 07:03:55;;;;;;;21.47;17.33;;;14.30;99.90;;;;;;5019511;28;20452;-85
2021/05/17 07:06:26;;;;;;;20.97;18.27;;;14.50;99.00;;;;;;4994837;28;20314;-84
2021/05/17 07:11:50;;;;;;;22.43;18.43;;;14.50;97.60;;;;;;5028925;28;20190;-84
2021/05/17 07:14:19;;;;;;;26.53;20.77;;;14.60;98.60;;;;;;5023822;28;20586;-86
2021/05/17 07:16:47;;;;;;;23.87;19.70;;;14.60;97.60;;;;;;5024586;28;20190;-85
2021/05/17 07:19:16;;;;;;;27.83;18.40;;;14.70;97.10;;;;;;5032599;28;20186;-87
2021/05/17 07:24:34;;;;;;;22.30;19.03;;;14.90;98.60;;;;;;5012548;28;20315;-85
2021/05/17 07:27:02;;;;;;;24.10;19.33;;;15.20;96.90;;;;;;5011299;28;20203;-86
2021/05/17 07:29:32;;;;;;;21.63;19.23;;;15.30;95.50;;;;;;5011783;28;20377;-83
2021/05/17 07:32:00;;;;;;;22.00;19.67;;;15.20;94.60;;;;;;5015194;28;20218;-85
2021/05/17 07:34:34;;;;;;;25.00;19.73;;;15.10;95.70;;;;;;5012545;28;20210;-86
2021/05/17 07:37:03;;;;;;;25.23;20.30;;;15.20;95.40;;;;;;4999783;28;20282;-84
2021/05/17 07:39:32;;;;;;;21.73;18.80;;;15.20;96.80;;;;;;5009157;28;20249;-85
2021/05/17 07:42:01;;;;;;;20.97;18.30;;;15.20;96.20;;;;;;5016177;28;20199;-83
2021/05/17 07:44:30;;;;;;;20.17;17.43;;;15.50;95.20;;;;;;5019542;28;20225;-86
2021/05/17 07:47:01;;;;;;;22.07;19.03;;;15.60;94.30;;;;;;5027050;28;20281;-85
2021/05/17 07:49:38;;;;;;;20.00;17.70;;;15.60;94.20;;;;;;5007038;28;20219;-83
2021/05/17 07:52:09;;;;;;;20.97;17.97;;;15.70;95.10;;;;;;5030741;28;20233;-86
2021/05/17 07:54:39;;;;;;;19.73;17.63;;;15.80;94.70;;;;;;5030784;28;20203;-86
2021/05/17 07:57:18;;;;;;;20.47;17.80;;;15.90;94.60;;;;;;5025698;28;20282;-84
2021/05/17 07:59:47;;;;;;;19.77;17.67;;;15.90;93.80;;;;;;5006355;28;20904;-86
2021/05/17 08:02:20;;;;;;;20.70;18.47;;;16.00;93.70;;;;;;5019876;28;20198;-86
2021/05/17 08:04:51;;;;;;;21.30;17.07;;;16.10;94.90;;;;;;5026952;28;20417;-85
2021/05/17 08:07:22;;;;;;;19.83;15.40;;;16.20;93.90;;;;;;5011111;28;20203;-86
2021/05/17 08:09:52;;;;;;;17.20;15.23;;;16.20;92.80;;;;;;5029654;28;21122;-85
2021/05/17 08:12:22;;;;;;;19.63;17.50;;;16.30;93.10;;;;;;5009614;28;20468;-83
2021/05/17 08:14:51;;;;;;;18.50;16.50;;;16.30;92.70;;;;;;5022742;28;20194;-88
2021/05/17 08:17:20;;;;;;;20.73;16.73;;;16.40;93.00;;;;;;5037546;28;20198;-84
2021/05/17 08:20:00;;;;;;;18.43;16.43;;;16.50;92.20;;;;;;5014500;28;20203;-85
2021/05/17 08:22:30;;;;;;;17.60;15.70;;;16.60;92.00;;;;;;5010396;28;20326;-86
2021/05/17 08:24:59;;;;;;;17.83;15.97;;;16.70;92.30;;;;;;5016476;28;20271;-85
2021/05/17 08:27:29;;;;;;;18.67;15.17;;;16.80;93.10;;;;;;5026684;28;20216;-85
2021/05/17 08:29:57;;;;;;;16.03;14.47;;;17.10;92.80;;;;;;5030792;28;20371;-85
2021/05/17 08:32:26;;;;;;;15.63;14.03;;;17.20;91.40;;;;;;5030764;28;20195;-84
2021/05/17 08:34:54;;;;;;;15.00;13.50;;;17.30;90.90;;;;;;5031316;28;20835;-86
2021/05/17 08:37:25;;;;;;;16.07;14.10;;;17.50;90.60;;;;;;5031079;28;20415;-85
2021/05/17 08:40:25;;;;;;;13.73;12.43;;;17.60;91.10;;;;;;5020808;28;20669;-85
2021/05/17 08:42:54;;;;;;;12.40;11.10;;;17.70;90.10;;;;;;5026523;28;20195;-85
2021/05/17 08:45:25;;;;;;;13.10;11.70;;;17.70;89.60;;;;;;5032276;28;20221;-86
2021/05/17 08:47:54;;;;;;;12.43;11.23;;;17.90;89.80;;;;;;5028759;28;20214;-84
2021/05/17 08:50:24;;;;;;;12.70;11.50;;;18.10;90.40;;;;;;5033717;28;20202;-86
2021/05/17 08:52:54;;;;;;;11.60;10.40;;;18.10;89.00;;;;;;5020624;28;20266;-85
2021/05/17 08:55:25;;;;;;;11.27;10.27;;;18.00;88.70;;;;;;5018802;28;20265;-84
2021/05/17 08:57:58;;;;;;;10.00;9.03;;;18.00;88.60;;;;;;5024215;28;20190;-84
2021/05/17 09:00:29;;;;;;;9.20;8.30;;;18.00;86.50;;;;;;5021677;28;20476;-84
2021/05/17 09:02:58;;;;;;;9.47;8.63;;;18.10;86.90;;;;;;5002155;28;20655;-83
2021/05/17 09:05:31;;;;;;;8.40;7.60;;;18.20;86.00;;;;;;5007753;28;20213;-83
2021/05/17 09:08:03;;;;;;;9.77;7.93;;;18.20;86.30;;;;;;5006908;28;20207;-85
2021/05/17 09:10:35;;;;;;;7.97;6.87;;;18.40;85.90;;;;;;5012040;28;20218;-82
2021/05/17 09:13:06;;;;;;;7.60;6.90;;;18.50;84.00;;;;;;5008566;28;20195;-84
2021/05/17 09:15:37;;;;;;;7.70;6.27;;;18.60;84.00;;;;;;5008278;28;20567;-85
2021/05/17 09:18:10;;;;;;;7.03;6.33;;;18.60;82.90;;;;;;5006644;28;20575;-82
2021/05/17 09:20:40;;;;;;;7.50;6.80;;;18.60;83.50;;;;;;5013567;28;20316;-83
2021/05/17 09:23:14;;;;;;;6.40;5.90;;;18.80;83.70;;;;;;5007835;28;20226;-83
2021/05/17 09:26:07;;;;;;;7.53;5.63;;;18.90;82.80;;;;;;5030911;28;20194;-84
2021/05/17 09:28:38;;;;;;;6.00;5.50;;;19.00;83.20;;;;;;5032956;28;20207;-82
2021/05/17 09:31:09;;;;;;;4.03;3.70;;;19.00;81.70;;;;;;5017063;28;20215;-84
2021/05/17 09:33:40;;;;;;;5.50;5.00;;;19.00;80.80;;;;;;5023670;28;20588;-84
2021/05/17 09:36:28;;;;;;;5.57;5.17;;;19.20;81.00;;;;;;5012503;28;20190;-82
2021/05/17 09:39:00;;;;;;;5.27;4.77;;;19.10;81.10;;;;;;5010235;28;20211;-82
2021/05/17 09:41:41;;;;;;;9.03;5.20;;;19.20;81.20;;;;;;4997210;28;20209;-86
2021/05/17 09:44:14;;;;;;;4.47;4.17;;;19.40;80.80;;;;;;5011545;28;21188;-84
2021/05/17 09:47:05;;;;;;;6.00;5.40;;;19.20;80.30;;;;;;5018984;28;20273;-82
2021/05/17 09:49:38;;;;;;;5.30;4.67;;;19.30;80.30;;;;;;5020816;28;20210;-86
2021/05/17 09:52:08;;;;;;;4.60;4.20;;;19.30;80.80;;;;;;5009482;28;20824;-83
2021/05/17 09:54:57;;;;;;;4.27;3.97;;;19.40;80.00;;;;;;5015777;28;20407;-85
2021/05/17 09:57:30;;;;;;;4.57;3.63;;;19.20;79.20;;;;;;5003353;28;20223;-84
2021/05/17 10:00:08;;;;;;;3.50;3.20;;;19.20;79.00;;;;;;4997687;28;20219;-84
2021/05/17 10:02:43;;;;;;;3.90;3.60;;;19.00;78.80;;;;;;5007661;28;20471;-85
2021/05/17 10:05:19;;;;;;;3.80;3.13;;;18.90;79.10;;;;;;5010685;28;20529;-82
2021/05/17 10:07:50;;;;;;;4.90;3.10;;;19.00;77.30;;;;;;4998470;28;20720;-83
2021/05/17 10:10:41;;;;;;;3.13;2.53;;;18.90;78.00;;;;;;5001215;28;20361;-84
2021/05/17 10:13:10;;;;;;;3.40;2.20;;;18.90;76.90;;;;;;5034349;28;20390;-84
2021/05/17 10:15:39;;;;;;;2.30;2.00;;;18.90;75.40;;;;;;5026234;28;20239;-86
2021/05/17 10:18:11;;;;;;;4.10;2.90;;;18.90;73.70;;;;;;5013123;28;20206;-85
2021/05/17 10:20:41;;;;;;;2.37;2.17;;;19.00;74.30;;;;;;5023625;28;20783;-88
2021/05/17 10:23:12;;;;;;;4.40;1.90;;;19.00;73.10;;;;;;5014427;28;20202;-86
2021/05/17 10:25:45;;;;;;;2.50;1.67;;;19.10;73.50;;;;;;5009080;28;20206;-84
2021/05/17 10:28:17;;;;;;;1.50;1.40;;;19.40;72.80;;;;;;5019948;28;20214;-82
2021/05/17 10:30:47;;;;;;;2.10;1.90;;;19.40;68.50;;;;;;5014614;28;20452;-84
2021/05/17 10:33:26;;;;;;;1.80;1.53;;;19.50;70.40;;;;;;5011049;28;20260;-81
2021/05/17 10:35:55;;;;;;;1.93;1.70;;;19.50;68.50;;;;;;5004278;28;20207;-82
2021/05/17 10:38:26;;;;;;;1.77;1.30;;;19.50;68.50;;;;;;5003379;28;20222;-81
2021/05/17 10:41:19;;;;;;;2.23;1.40;;;19.40;67.90;;;;;;5011217;28;20270;-83
2021/05/17 10:44:00;;;;;;;2.40;2.20;;;19.40;67.00;;;;;;5028345;28;20224;-85
2021/05/17 10:46:37;;;;;;;2.07;1.70;;;19.50;68.60;;;;;;5016918;28;20686;-81
2021/05/17 10:49:25;;;;;;;1.73;1.40;;;19.90;68.10;;;;;;5007233;28;20646;-81
2021/05/17 10:51:56;;;;;;;1.40;1.30;;;19.80;67.70;;;;;;5005386;28;20245;-83
2021/05/17 10:54:29;;;;;;;2.10;1.60;;;19.60;65.90;;;;;;5001840;28;20241;-84
2021/05/17 10:57:01;;;;;;;1.40;1.30;;;19.40;67.40;;;;;;5003421;28;20210;-82
2021/05/17 11:02:21;;;;;;;2.37;2.17;;;19.10;66.90;;;;;;5024531;28;20183;-80
2021/05/17 11:05:00;;;;;;;2.93;2.30;;;19.30;68.70;;;;;;5017782;28;20203;-83
2021/05/17 11:07:31;;;;;;;6.60;2.90;;;19.60;69.60;;;;;;5005530;28;20234;-81
2021/05/17 11:10:12;;;;;;;2.57;1.50;;;19.70;68.80;;;;;;5000867;28;21001;-83
2021/05/17 11:13:06;;;;;;;3.70;1.70;;;19.90;67.80;;;;;;5004646;28;21720;-83
2021/05/17 11:15:45;;;;;;;2.10;1.70;;;20.00;67.00;;;;;;5009397;28;20597;-82
2021/05/17 11:18:27;;;;;;;1.70;1.60;;;19.70;66.80;;;;;;5009554;28;20516;-81
2021/05/17 11:20:58;;;;;;;2.10;1.77;;;19.50;67.10;;;;;;5004480;28;20504;-80
2021/05/17 11:23:48;;;;;;;2.47;2.27;;;19.40;67.50;;;;;;5005477;28;20213;-83
2021/05/17 11:26:22;;;;;;;3.30;2.10;;;19.50;67.70;;;;;;5022495;28;20907;-83
2021/05/17 11:29:06;;;;;;;4.23;2.20;;;19.60;68.10;;;;;;5005004;28;20215;-85
2021/05/17 11:31:44;;;;;;;2.80;2.20;;;19.70;67.40;;;;;;5026800;28;20617;-82
2021/05/17 11:34:26;;;;;;;2.50;2.30;;;19.70;67.60;;;;;;5024969;28;20281;-82
2021/05/17 11:37:12;;;;;;;2.77;2.57;;;19.80;67.70;;;;;;5016135;28;20210;-82
2021/05/17 11:39:44;;;;;;;3.67;3.10;;;19.90;68.50;;;;;;5023450;28;20203;-82
2021/05/17 11:42:19;;;;;;;3.40;2.60;;;20.00;68.50;;;;;;5023365;28;20271;-80
2021/05/17 11:44:54;;;;;;;2.60;2.43;;;20.00;67.20;;;;;;5024410;28;20203;-82
2021/05/17 11:47:24;;;;;;;3.47;2.43;;;20.00;66.20;;;;;;5016434;28;20767;-83
2021/05/17 11:49:54;;;;;;;2.73;2.40;;;20.00;67.80;;;;;;5020978;28;20217;-83
2021/05/17 11:52:25;;;;;;;3.43;2.60;;;20.30;67.70;;;;;;5009713;28;20928;-84
2021/05/17 11:54:55;;;;;;;3.10;2.38;;;20.70;66.90;;;;;;5008939;28;20294;-84
2021/05/17 11:57:29;;;;;;;2.40;2.20;;;20.80;66.10;;;;;;5004564;28;20205;-81
2021/05/17 12:00:04;;;;;;;3.22;2.92;;;20.90;66.40;;;;;;5006370;28;20225;-84
2021/05/17 12:02:32;;;;;;;2.97;2.55;;;21.20;66.90;;;;;;5018700;28;20207;-81
2021/05/17 12:05:01;;;;;;;2.47;2.28;;;21.30;66.90;;;;;;5025784;28;20410;-81
2021/05/17 12:07:43;;;;;;;2.75;2.50;;;21.50;66.10;;;;;;5007495;28;20218;-83
2021/05/17 12:10:13;;;;;;;3.00;2.70;;;21.70;66.60;;;;;;5012098;28;20218;-84
2021/05/17 12:12:41;;;;;;;4.22;2.63;;;21.70;65.20;;;;;;5021010;28;20233;-81
2021/05/17 12:15:16;;;;;;;2.95;2.13;;;21.80;66.10;;;;;;5006401;28;20296;-85
2021/05/17 12:17:45;;;;;;;2.28;2.03;;;21.90;66.30;;;;;;5004445;28;20509;-84
2021/05/17 12:20:15;;;;;;;2.28;2.17;;;21.80;64.80;;;;;;5009090;28;20214;-82
2021/05/17 12:22:46;;;;;;;3.00;2.00;;;21.70;63.90;;;;;;5015374;28;20650;-81
2021/05/17 12:25:17;;;;;;;2.30;2.10;;;21.60;63.30;;;;;;5020039;28;20205;-83
2021/05/17 12:27:47;;;;;;;2.78;2.20;;;21.60;63.70;;;;;;5017371;28;20814;-82
2021/05/17 12:30:19;;;;;;;2.60;2.40;;;21.50;62.40;;;;;;5014560;28;20210;-81
2021/05/17 12:32:50;;;;;;;3.03;2.35;;;21.60;62.50;;;;;;5013572;28;20314;-82
2021/05/17 12:35:33;;;;;;;2.70;2.15;;;21.50;62.90;;;;;;5016734;28;20206;-84
2021/05/17 12:38:03;;;;;;;3.25;2.25;;;21.50;63.40;;;;;;5021085;28;20221;-84
2021/05/17 12:40:34;;;;;;;3.90;2.70;;;21.40;63.70;;;;;;5021361;28;20523;-81
2021/05/17 12:43:14;;;;;;;2.45;2.22;;;21.20;64.10;;;;;;5014900;28;20203;-82
2021/05/17 12:45:58;;;;;;;3.00;2.58;;;21.20;63.90;;;;;;5013349;28;20206;-83
2021/05/17 12:48:30;;;;;;;2.95;2.67;;;21.20;65.40;;;;;;5002059;28;20214;-82
2021/05/17 12:51:00;;;;;;;2.47;2.28;;;21.20;64.70;;;;;;5003590;28;20876;-82
2021/05/17 12:53:30;;;;;;;3.05;2.70;;;21.10;64.20;;;;;;4998980;28;20538;-82
2021/05/17 12:55:59;;;;;;;3.42;2.60;;;21.10;64.60;;;;;;4983912;28;20234;-82
2021/05/17 12:58:33;;;;;;;2.53;2.20;;;21.30;64.90;;;;;;5000339;28;20207;-84
2021/05/17 13:01:09;;;;;;;2.83;2.25;;;21.40;64.20;;;;;;5007480;28;20214;-81
2021/05/17 13:03:42;;;;;;;2.72;2.20;;;21.60;64.20;;;;;;5009197;28;20211;-81
2021/05/17 13:06:11;;;;;;;2.58;2.38;;;21.70;63.30;;;;;;5021298;28;20203;-82
2021/05/17 13:08:49;;;;;;;3.28;2.45;;;21.90;63.30;;;;;;5030921;28;20440;-84
2021/05/17 13:11:33;;;;;;;3.05;2.15;;;22.20;63.80;;;;;;5030037;28;20210;-85
2021/05/17 13:14:18;;;;;;;2.67;2.05;;;22.50;63.00;;;;;;5016351;28;20664;-83